Terminal Aerodrome Forecast
Issued by NWS Louisville, KY

Home | Current Version | Previous Version | Text Only | Print | Product List | Glossary On
Versions: 1 2 3 4 5 6 7 8 9 10 11 12 13 14 15 16 17 18 19 20 21 22
000
FTUS43 KLMK 131700
TAFLEX
TAF
KLEX 131726Z 1318/1418 20022G32KT P6SM FEW050 BKN200
     FM140100 18013G20KT P6SM SCT050 BKN150 WS020/20045KT
     FM141400 19015G25KT 6SM -SHRA OVC030=

USA.gov is the U.S. government's official web portal to all federal, state and local government web resources and services.